createdAt,value
2018-11-12T00:02:21.618Z,93.40
2018-11-12T00:04:50.130Z,93.40
2018-11-12T00:07:18.589Z,93.60
2018-11-12T00:09:47.055Z,93.60
2018-11-12T00:12:15.514Z,93.80
2018-11-12T00:14:43.998Z,94.00
2018-11-12T00:17:12.454Z,94.20
2018-11-12T00:19:40.935Z,94.50
2018-11-12T00:22:09.425Z,94.60
2018-11-12T00:24:37.914Z,94.70
2018-11-12T00:27:06.413Z,94.80
2018-11-12T00:29:34.916Z,95.00
2018-11-12T00:32:03.531Z,95.20
2018-11-12T00:34:32.015Z,95.40
2018-11-12T00:37:00.423Z,95.50
2018-11-12T00:39:28.847Z,95.60
2018-11-12T00:41:57.258Z,95.90
2018-11-12T00:44:25.697Z,95.80
2018-11-12T00:46:54.126Z,95.70
2018-11-12T00:49:22.577Z,95.80
2018-11-12T00:51:50.973Z,95.40
2018-11-12T00:54:19.383Z,95.60
2018-11-12T00:56:47.810Z,95.50
2018-11-12T00:59:16.239Z,95.50
2018-11-12T01:01:44.666Z,95.40
2018-11-12T01:04:13.315Z,95.40
2018-11-12T01:06:41.698Z,95.40
2018-11-12T01:09:11.289Z,95.40
2018-11-12T01:11:39.723Z,95.50
2018-11-12T01:14:08.390Z,95.40
2018-11-12T01:16:36.899Z,95.40
2018-11-12T01:19:05.698Z,95.40
2018-11-12T01:21:34.100Z,95.70
2018-11-12T01:24:02.570Z,95.90
2018-11-12T01:26:30.990Z,96.00
2018-11-12T01:28:59.429Z,96.20
2018-11-12T01:31:27.838Z,96.20
2018-11-12T01:33:56.281Z,96.30
2018-11-12T01:36:24.698Z,96.40
2018-11-12T01:38:53.133Z,96.30
2018-11-12T01:41:21.577Z,96.00
2018-11-12T01:43:50.022Z,96.10
2018-11-12T01:46:18.429Z,96.00
2018-11-12T01:48:46.865Z,95.80
2018-11-12T01:51:15.285Z,95.60
2018-11-12T01:53:43.734Z,95.70
2018-11-12T01:56:12.155Z,95.70
2018-11-12T01:58:40.571Z,95.80
2018-11-12T02:01:09.021Z,96.00
2018-11-12T02:03:37.438Z,96.10
2018-11-12T02:06:05.915Z,95.90
2018-11-12T02:08:34.369Z,95.80
2018-11-12T02:11:02.798Z,95.70
2018-11-12T02:13:31.218Z,95.50
2018-11-12T02:15:59.650Z,95.30
2018-11-12T02:18:28.078Z,95.10
2018-11-12T02:20:56.518Z,95.30
2018-11-12T02:23:24.963Z,95.40
2018-11-12T02:25:53.430Z,95.50
2018-11-12T02:28:21.870Z,95.50
2018-11-12T02:30:50.398Z,95.20
2018-11-12T02:33:18.955Z,95.30
2018-11-12T02:35:47.426Z,95.00
2018-11-12T02:38:15.869Z,95.10
2018-11-12T02:40:44.350Z,94.90
2018-11-12T02:43:12.802Z,94.90
2018-11-12T02:45:41.278Z,95.00
2018-11-12T02:48:09.743Z,95.20
2018-11-12T02:50:38.209Z,95.30
2018-11-12T02:53:06.671Z,95.50
2018-11-12T02:55:35.138Z,95.70
2018-11-12T02:58:03.599Z,95.60
2018-11-12T03:00:32.078Z,95.20
2018-11-12T03:03:00.511Z,94.90
2018-11-12T03:05:29.011Z,95.10
2018-11-12T03:07:57.516Z,95.10
2018-11-12T03:10:26.020Z,95.30
2018-11-12T03:12:54.473Z,94.60
2018-11-12T03:15:23.129Z,94.80
2018-11-12T03:17:52.217Z,94.80
2018-11-12T03:20:21.931Z,95.00
2018-11-12T03:22:50.422Z,95.00
2018-11-12T03:25:20.134Z,95.00
2018-11-12T03:27:49.165Z,94.90
2018-11-12T03:30:19.791Z,95.00
2018-11-12T03:32:49.039Z,95.10
2018-11-12T03:35:17.750Z,95.10
2018-11-12T03:37:47.231Z,95.00
2018-11-12T03:40:17.872Z,94.50
2018-11-12T03:42:46.762Z,94.50
2018-11-12T03:45:24.617Z,94.40
2018-11-12T03:47:53.183Z,93.90
2018-11-12T03:50:24.030Z,93.60
2018-11-12T03:52:52.495Z,93.60
2018-11-12T03:55:21.948Z,93.60
2018-11-12T03:57:50.365Z,93.60
2018-11-12T04:00:25.213Z,93.60
2018-11-12T04:02:53.586Z,93.60
2018-11-12T04:05:22.011Z,93.50
2018-11-12T04:07:50.422Z,93.80
2018-11-12T04:10:20.023Z,94.00
2018-11-12T04:12:48.506Z,94.10
2018-11-12T04:15:20.393Z,94.00
2018-11-12T04:17:48.783Z,94.10
2018-11-12T04:20:18.445Z,93.70
2018-11-12T04:22:52.039Z,93.50
2018-11-12T04:25:20.702Z,93.50
2018-11-12T04:27:49.211Z,93.50
2018-11-12T04:30:17.707Z,93.50
2018-11-12T04:32:46.830Z,93.20
2018-11-12T04:35:15.318Z,92.60
2018-11-12T04:37:43.778Z,92.60
2018-11-12T04:40:14.361Z,92.40
2018-11-12T04:42:42.864Z,92.20
2018-11-12T04:45:14.204Z,92.00
2018-11-12T04:47:43.418Z,92.10
2018-11-12T04:50:14.264Z,92.40
2018-11-12T04:52:42.803Z,92.90
2018-11-12T04:55:12.914Z,93.10
2018-11-12T04:57:42.982Z,92.90
2018-11-12T05:00:13.643Z,93.40
2018-11-12T05:02:42.174Z,93.40
2018-11-12T05:05:12.539Z,93.40
2018-11-12T05:07:41.219Z,93.30
2018-11-12T05:10:11.487Z,92.90
2018-11-12T05:12:40.619Z,92.70
2018-11-12T05:15:13.050Z,92.20
2018-11-12T05:17:41.554Z,91.30
2018-11-12T05:20:16.362Z,90.70
2018-11-12T05:22:44.850Z,90.40
2018-11-12T05:25:13.359Z,90.80
2018-11-12T05:27:41.834Z,90.90
2018-11-12T05:30:21.484Z,90.90
2018-11-12T05:32:49.943Z,90.80
2018-11-12T05:35:19.722Z,90.70
2018-11-12T05:37:48.233Z,90.20
2018-11-12T05:40:18.105Z,90.20
2018-11-12T05:42:46.512Z,90.20
2018-11-12T05:45:16.117Z,90.20
2018-11-12T05:47:44.531Z,90.50
2018-11-12T05:50:16.118Z,90.30
2018-11-12T05:52:47.702Z,90.20
2018-11-12T05:55:17.338Z,90.20
2018-11-12T05:57:46.221Z,90.20
2018-11-12T06:00:16.593Z,90.20
2018-11-12T06:02:45.042Z,90.10
2018-11-12T06:05:14.502Z,90.20
2018-11-12T06:07:43.375Z,90.20
2018-11-12T06:10:18.360Z,89.70
2018-11-12T06:12:46.978Z,89.70
2018-11-12T06:15:15.632Z,89.70
2018-11-12T06:17:44.883Z,89.70
2018-11-12T06:20:18.710Z,89.30
2018-11-12T06:22:47.197Z,89.90
2018-11-12T06:25:17.118Z,90.00
2018-11-12T06:27:45.618Z,90.20
2018-11-12T06:30:16.623Z,90.20
2018-11-12T06:32:45.176Z,90.40
2018-11-12T06:35:14.357Z,90.10
2018-11-12T06:37:43.517Z,90.10
2018-11-12T06:40:15.548Z,90.20
2018-11-12T06:42:44.243Z,90.50
2018-11-12T06:45:17.846Z,90.40
2018-11-12T06:47:47.347Z,90.50
2018-11-12T06:50:17.269Z,90.60
2018-11-12T06:52:45.806Z,90.50
2018-11-12T06:55:15.034Z,90.40
2018-11-12T06:57:44.054Z,90.20
2018-11-12T07:00:17.633Z,90.20
2018-11-12T07:02:46.186Z,90.20
2018-11-12T07:05:14.987Z,90.20
2018-11-12T07:07:43.490Z,90.20
2018-11-12T07:10:14.662Z,90.20
2018-11-12T07:12:44.054Z,90.20
2018-11-12T07:15:13.961Z,90.20
2018-11-12T07:17:42.451Z,89.90
2018-11-12T07:20:13.484Z,90.00
2018-11-12T07:22:41.997Z,89.70
2018-11-12T07:25:11.495Z,89.30
2018-11-12T07:27:40.006Z,88.30
2018-11-12T07:30:17.949Z,87.50
2018-11-12T07:32:46.947Z,87.10
2018-11-12T07:35:16.153Z,86.20
2018-11-12T07:37:45.761Z,85.90
2018-11-12T07:40:14.853Z,85.60
2018-11-12T07:42:43.535Z,85.10
2018-11-12T07:45:20.157Z,85.30
2018-11-12T07:47:49.676Z,84.20
2018-11-12T07:50:19.429Z,84.30
2018-11-12T07:52:47.887Z,83.00
2018-11-12T07:55:18.326Z,82.20
2018-11-12T07:57:47.866Z,81.20
2018-11-12T08:00:19.412Z,80.90
2018-11-12T08:02:48.925Z,80.50
2018-11-12T08:05:17.598Z,80.20
2018-11-12T08:07:46.426Z,80.70
2018-11-12T08:10:16.105Z,80.30
2018-11-12T08:12:45.184Z,80.60
2018-11-12T08:15:14.915Z,79.90
2018-11-12T08:17:43.601Z,80.30
2018-11-12T08:20:16.675Z,80.20
2018-11-12T08:22:46.286Z,80.20
2018-11-12T08:25:14.742Z,80.00
2018-11-12T08:27:43.639Z,80.80
2018-11-12T08:30:15.389Z,79.70
2018-11-12T08:32:44.767Z,79.20
2018-11-12T08:35:13.801Z,79.90
2018-11-12T08:37:42.302Z,79.80
2018-11-12T08:40:13.494Z,79.40
2018-11-12T08:42:42.130Z,79.40
2018-11-12T08:45:10.999Z,79.20
2018-11-12T08:47:40.305Z,79.10
2018-11-12T08:50:14.819Z,79.20
2018-11-12T08:52:44.436Z,78.80
2018-11-12T08:55:15.388Z,77.50
2018-11-12T08:57:45.736Z,77.60
2018-11-12T09:00:14.494Z,77.50
2018-11-12T09:02:43.070Z,77.60
2018-11-12T09:05:12.679Z,77.80
2018-11-12T09:07:42.218Z,76.70
2018-11-12T09:10:13.725Z,75.00
2018-11-12T09:12:42.837Z,74.50
2018-11-12T09:15:11.823Z,73.90
2018-11-12T09:17:41.246Z,74.50
2018-11-12T09:20:11.585Z,73.80
2018-11-12T09:22:40.034Z,74.40
2018-11-12T09:25:10.774Z,73.90
2018-11-12T09:27:39.288Z,74.40
2018-11-12T09:30:14.393Z,74.60
2018-11-12T09:32:43.305Z,74.20
2018-11-12T09:35:13.501Z,73.90
2018-11-12T09:37:42.608Z,73.40
2018-11-12T09:40:13.901Z,73.00
2018-11-12T09:42:42.554Z,73.00
2018-11-12T09:45:11.630Z,73.10
2018-11-12T09:47:40.952Z,72.70
2018-11-12T09:50:12.066Z,72.00
2018-11-12T09:52:41.489Z,72.00
2018-11-12T09:55:10.915Z,72.20
2018-11-12T09:57:40.387Z,72.40
2018-11-12T10:00:12.626Z,72.70
2018-11-12T10:02:42.963Z,72.40
2018-11-12T10:05:11.645Z,72.90
2018-11-12T10:07:40.698Z,72.00
2018-11-12T10:10:19.415Z,72.20
2018-11-12T10:12:47.667Z,73.10
2018-11-12T10:15:16.758Z,72.50
2018-11-12T10:17:45.384Z,72.30
2018-11-12T10:20:11.100Z,72.80
2018-11-12T10:22:39.582Z,73.10
2018-11-12T10:25:08.081Z,73.20
2018-11-12T10:27:36.664Z,73.10
2018-11-12T10:30:05.887Z,73.20
2018-11-12T10:32:34.328Z,73.70
2018-11-12T10:35:02.824Z,74.60
2018-11-12T10:37:31.259Z,75.10
2018-11-12T10:39:59.707Z,75.00
2018-11-12T10:42:28.132Z,74.70
2018-11-12T10:44:56.663Z,75.50
2018-11-12T10:47:25.106Z,76.00
2018-11-12T10:49:54.495Z,76.70
2018-11-12T10:52:22.923Z,76.50
2018-11-12T10:55:04.893Z,75.40
2018-11-12T10:57:19.791Z,75.40
2018-11-12T10:59:48.351Z,75.30
2018-11-12T11:03:23.426Z,75.70
2018-11-12T11:05:53.032Z,75.50
2018-11-12T11:08:21.591Z,74.90
2018-11-12T11:10:49.941Z,74.10
2018-11-12T11:13:18.390Z,73.30
2018-11-12T11:15:46.811Z,73.60
2018-11-12T11:18:15.294Z,73.90
2018-11-12T11:20:43.739Z,75.00
2018-11-12T11:23:12.202Z,76.40
2018-11-12T11:25:40.689Z,75.90
2018-11-12T11:28:09.134Z,75.60
2018-11-12T11:30:37.740Z,74.70
2018-11-12T11:33:07.376Z,74.80
2018-11-12T11:35:35.955Z,74.40
2018-11-12T11:38:05.227Z,74.50
2018-11-12T11:40:33.921Z,74.00
2018-11-12T11:43:02.390Z,74.20
2018-11-12T11:45:30.833Z,74.40
2018-11-12T11:47:59.350Z,75.10
2018-11-12T11:50:28.115Z,75.80
2018-11-12T11:52:56.514Z,75.90
2018-11-12T11:55:25.352Z,75.60
2018-11-12T11:57:54.231Z,75.70
2018-11-12T12:00:24.058Z,75.80
2018-11-12T12:02:53.495Z,76.30
2018-11-12T12:05:22.695Z,75.80
2018-11-12T12:07:51.937Z,75.60
2018-11-12T12:10:20.417Z,76.90
2018-11-12T12:12:49.687Z,78.00
2018-11-12T12:15:19.267Z,77.90
2018-11-12T12:17:48.292Z,77.80
2018-11-12T12:20:21.166Z,77.50
2018-11-12T12:22:49.636Z,78.10
2018-11-12T12:25:18.674Z,78.20
2018-11-12T12:27:47.519Z,77.90
2018-11-12T12:30:25.140Z,78.70
2018-11-12T12:32:54.698Z,78.70
2018-11-12T12:35:23.294Z,78.00
2018-11-12T12:37:51.907Z,77.00
2018-11-12T12:40:21.494Z,76.90
2018-11-12T12:42:49.986Z,75.90
2018-11-12T12:45:19.868Z,74.60
2018-11-12T12:47:48.717Z,72.80
2018-11-12T12:50:17.972Z,71.80
2018-11-12T12:52:46.430Z,73.30
2018-11-12T12:55:15.835Z,72.90
2018-11-12T12:57:44.826Z,71.90
2018-11-12T13:00:17.530Z,71.50
2018-11-12T13:02:46.052Z,71.50
2018-11-12T13:05:14.582Z,71.40
2018-11-12T13:07:43.040Z,71.40
2018-11-12T13:10:13.051Z,72.10
2018-11-12T13:12:41.759Z,71.40
2018-11-12T13:15:12.114Z,72.00
2018-11-12T13:17:40.718Z,72.00
2018-11-12T13:20:10.912Z,72.30
2018-11-12T13:22:39.495Z,72.80
2018-11-12T13:25:08.450Z,72.40
2018-11-12T13:27:37.350Z,72.20
2018-11-12T13:30:08.422Z,71.50
2018-11-12T13:32:37.046Z,71.80
2018-11-12T13:35:06.440Z,71.60
2018-11-12T13:37:34.874Z,71.80
2018-11-12T13:40:03.483Z,71.70
2018-11-12T13:42:31.930Z,70.90
2018-11-12T13:45:00.390Z,71.00
2018-11-12T13:47:28.834Z,71.00
2018-11-12T13:49:57.300Z,71.00
2018-11-12T13:52:25.710Z,71.60
2018-11-12T13:54:54.162Z,71.00
2018-11-12T13:57:22.582Z,70.50
2018-11-12T13:59:51.027Z,70.40
2018-11-12T14:02:19.462Z,69.90
2018-11-12T14:04:47.924Z,69.90
2018-11-12T14:07:16.370Z,69.70
2018-11-12T14:09:44.822Z,70.30
2018-11-12T14:12:13.248Z,70.20
2018-11-12T14:14:41.697Z,69.90
2018-11-12T14:17:10.130Z,70.10
2018-11-12T14:19:38.577Z,70.30
2018-11-12T14:22:07.036Z,70.50
2018-11-12T14:24:35.488Z,69.90
2018-11-12T14:27:03.919Z,70.00
2018-11-12T14:29:32.364Z,70.20
2018-11-12T14:32:00.802Z,70.60
2018-11-12T14:34:29.300Z,70.50
2018-11-12T14:36:57.783Z,70.70
2018-11-12T14:39:26.316Z,71.30
2018-11-12T14:41:54.821Z,71.50
2018-11-12T14:44:23.347Z,71.00
2018-11-12T14:46:51.821Z,71.90
2018-11-12T14:49:20.357Z,71.90
2018-11-12T14:51:49.197Z,71.30
2018-11-12T14:54:17.663Z,70.90
2018-11-12T14:56:46.317Z,70.80
2018-11-12T14:59:14.834Z,71.60
2018-11-12T15:01:43.417Z,71.50
2018-11-12T15:04:11.837Z,71.70
2018-11-12T15:06:40.340Z,71.60
2018-11-12T15:09:10.333Z,72.30
2018-11-12T15:11:38.980Z,72.90
2018-11-12T15:14:08.027Z,72.70
2018-11-12T15:16:36.551Z,73.20
2018-11-12T15:19:05.108Z,73.60
2018-11-12T15:21:33.679Z,73.70
2018-11-12T15:24:02.315Z,74.00
2018-11-12T15:26:31.126Z,73.20
2018-11-12T15:29:00.318Z,73.50
2018-11-12T15:31:30.092Z,74.30
2018-11-12T15:33:58.768Z,74.90
2018-11-12T15:36:27.384Z,74.40
2018-11-12T15:38:55.860Z,75.00
2018-11-12T15:41:24.354Z,75.60
2018-11-12T15:43:52.822Z,75.10
2018-11-12T15:46:21.306Z,74.10
2018-11-12T15:48:49.748Z,74.60
2018-11-12T15:51:18.222Z,75.10
2018-11-12T15:53:46.654Z,75.30
2018-11-12T15:56:15.126Z,74.70
2018-11-12T15:58:43.560Z,74.00
2018-11-12T16:01:12.031Z,74.50
2018-11-12T16:03:40.538Z,74.40
2018-11-12T16:06:09.100Z,74.70
2018-11-12T16:08:37.458Z,75.60
2018-11-12T16:11:05.980Z,75.80
2018-11-12T16:13:34.630Z,75.90
2018-11-12T16:16:03.094Z,75.00
2018-11-12T16:18:32.545Z,74.60
2018-11-12T16:21:01.690Z,75.00
2018-11-12T16:23:30.126Z,75.60
2018-11-12T16:25:58.643Z,75.90
2018-11-12T16:28:27.348Z,76.10
2018-11-12T16:30:55.824Z,76.50
2018-11-12T16:33:25.139Z,76.50
2018-11-12T16:35:54.499Z,77.20
2018-11-12T16:38:23.019Z,77.80
2018-11-12T16:40:51.501Z,77.80
2018-11-12T16:43:20.126Z,77.50
2018-11-12T16:45:48.645Z,76.90
2018-11-12T16:48:17.134Z,77.00
2018-11-12T16:50:45.630Z,77.50
2018-11-12T16:53:14.088Z,78.20
2018-11-12T16:55:42.592Z,77.40
2018-11-12T16:58:11.092Z,77.30
2018-11-12T17:00:39.594Z,76.80
2018-11-12T17:03:08.071Z,76.80
2018-11-12T17:05:36.556Z,76.30
2018-11-12T17:08:05.207Z,76.20
2018-11-12T17:10:33.699Z,76.20
2018-11-12T17:13:02.156Z,76.00
2018-11-12T17:15:30.940Z,75.60
2018-11-12T17:17:59.540Z,75.70
2018-11-12T17:20:28.020Z,75.90
2018-11-12T17:22:56.512Z,76.00
2018-11-12T17:25:25.001Z,76.40
2018-11-12T17:27:53.477Z,76.80
2018-11-12T17:30:22.372Z,75.90
2018-11-12T17:32:51.175Z,75.90
2018-11-12T17:35:20.573Z,76.70
2018-11-12T17:37:49.047Z,76.80
2018-11-12T17:40:20.675Z,76.80
2018-11-12T17:42:49.777Z,76.80
2018-11-12T17:45:19.537Z,76.50
2018-11-12T17:47:49.034Z,76.50
2018-11-12T17:50:17.513Z,76.10
2018-11-12T17:52:45.984Z,76.20
2018-11-12T17:55:14.452Z,76.30
2018-11-12T17:57:42.905Z,76.40
2018-11-12T18:00:14.446Z,76.00
2018-11-12T18:02:42.903Z,76.20
2018-11-12T18:05:11.779Z,76.00
2018-11-12T18:07:41.175Z,76.30
2018-11-12T18:10:10.682Z,76.40
2018-11-12T18:12:39.148Z,76.50
2018-11-12T18:15:09.990Z,76.30
2018-11-12T18:17:38.420Z,76.60
2018-11-12T18:20:09.855Z,76.40
2018-11-12T18:22:38.400Z,76.50
2018-11-12T18:25:06.904Z,76.20
2018-11-12T18:27:35.705Z,76.60
2018-11-12T18:30:05.098Z,76.40
2018-11-12T18:32:33.419Z,76.50
2018-11-12T18:35:01.934Z,77.10
2018-11-12T18:37:30.380Z,77.00
2018-11-12T18:39:58.788Z,76.90
2018-11-12T18:42:27.211Z,77.10
2018-11-12T18:44:55.642Z,77.60
2018-11-12T18:47:24.069Z,77.90
2018-11-12T18:49:52.539Z,77.60
2018-11-12T18:52:20.977Z,77.40
2018-11-12T18:54:49.388Z,77.50
2018-11-12T18:57:17.832Z,77.20
2018-11-12T18:59:46.256Z,77.50
2018-11-12T19:02:14.703Z,77.40
2018-11-12T19:04:43.129Z,77.50
2018-11-12T19:07:11.576Z,78.10
2018-11-12T19:09:40.008Z,78.40
2018-11-12T19:12:08.475Z,78.40
2018-11-12T19:14:36.893Z,79.10
2018-11-12T19:17:05.767Z,79.30
2018-11-12T19:19:34.327Z,79.00
2018-11-12T19:22:03.270Z,79.30
2018-11-12T19:24:31.723Z,79.60
2018-11-12T19:27:00.183Z,80.20
2018-11-12T19:29:28.613Z,80.60
2018-11-12T19:31:57.059Z,80.90
2018-11-12T19:34:25.559Z,81.30
2018-11-12T19:36:54.058Z,81.60
2018-11-12T19:39:22.770Z,81.90
2018-11-12T19:41:51.253Z,82.30
2018-11-12T19:44:19.714Z,82.90
2018-11-12T19:46:48.210Z,82.80
2018-11-12T19:49:16.677Z,83.30
2018-11-12T19:51:45.189Z,83.30
2018-11-12T19:54:13.671Z,83.50
2018-11-12T19:56:42.154Z,83.70
2018-11-12T19:59:10.680Z,84.10
2018-11-12T20:01:39.169Z,84.30
2018-11-12T20:04:07.670Z,85.10
2018-11-12T20:06:36.178Z,86.10
2018-11-12T20:09:06.199Z,85.30
2018-11-12T20:11:34.695Z,86.00
2018-11-12T20:14:03.173Z,86.20
2018-11-12T20:16:31.670Z,86.70
2018-11-12T20:19:00.139Z,87.20
2018-11-12T20:21:28.631Z,87.30
2018-11-12T20:23:57.087Z,87.50
2018-11-12T20:26:25.593Z,87.90
2018-11-12T20:28:54.091Z,88.30
2018-11-12T20:31:22.565Z,88.50
2018-11-12T20:33:51.008Z,88.50
2018-11-12T20:36:20.068Z,88.10
2018-11-12T20:38:48.560Z,88.30
2018-11-12T20:41:16.987Z,88.20
2018-11-12T20:43:45.430Z,88.00
2018-11-12T20:46:13.835Z,88.10
2018-11-12T20:48:42.271Z,88.50
2018-11-12T20:51:10.742Z,88.30
2018-11-12T20:53:39.194Z,88.60
2018-11-12T20:56:07.939Z,89.30
2018-11-12T20:58:36.388Z,88.20
2018-11-12T21:01:04.858Z,87.90
2018-11-12T21:03:33.327Z,88.20
2018-11-12T21:06:01.736Z,88.00
2018-11-12T21:08:30.167Z,87.70
2018-11-12T21:10:58.599Z,87.60
2018-11-12T21:13:27.066Z,87.70
2018-11-12T21:15:55.499Z,87.90
2018-11-12T21:18:23.958Z,88.60
2018-11-12T21:20:52.351Z,89.00
2018-11-12T21:23:20.780Z,89.20
2018-11-12T21:25:49.210Z,89.30
2018-11-12T21:28:17.645Z,89.30
2018-11-12T21:30:46.065Z,89.60
2018-11-12T21:33:14.522Z,89.70
2018-11-12T21:35:42.950Z,89.50
2018-11-12T21:38:11.403Z,89.50
2018-11-12T21:40:39.825Z,88.50
2018-11-12T21:43:08.353Z,88.40
2018-11-12T21:45:36.762Z,88.60
2018-11-12T21:48:05.330Z,89.20
2018-11-12T21:50:33.755Z,89.10
2018-11-12T21:53:02.229Z,89.00
2018-11-12T21:55:30.655Z,89.30
2018-11-12T21:57:59.106Z,89.60
2018-11-12T22:00:28.226Z,89.70
2018-11-12T22:02:58.196Z,90.10
2018-11-12T22:05:27.294Z,90.30
2018-11-12T22:07:55.736Z,90.40
2018-11-12T22:10:24.207Z,90.50
2018-11-12T22:12:53.382Z,90.60
2018-11-12T22:15:21.807Z,90.70
2018-11-12T22:17:50.269Z,90.70
2018-11-12T22:20:19.916Z,90.80
2018-11-12T22:22:48.362Z,90.80
2018-11-12T22:25:18.127Z,90.90
2018-11-12T22:27:47.256Z,90.90
2018-11-12T22:30:16.734Z,90.90
2018-11-12T22:32:46.529Z,90.90
2018-11-12T22:35:14.962Z,90.90
2018-11-12T22:37:43.946Z,90.90
2018-11-12T22:40:13.299Z,90.90
2018-11-12T22:42:42.519Z,90.50
2018-11-12T22:45:12.916Z,90.60
2018-11-12T22:47:41.451Z,90.60
2018-11-12T22:50:10.394Z,90.70
2018-11-12T22:52:39.433Z,90.50
2018-11-12T22:55:08.657Z,90.40
2018-11-12T22:57:37.097Z,90.40
2018-11-12T23:00:20.286Z,90.30
2018-11-12T23:02:49.419Z,90.40
2018-11-12T23:05:18.273Z,90.70
2018-11-12T23:07:47.380Z,90.90
2018-11-12T23:10:16.251Z,90.90
2018-11-12T23:12:44.773Z,91.10
2018-11-12T23:15:13.931Z,91.20
2018-11-12T23:17:42.372Z,91.30
2018-11-12T23:20:15.930Z,91.30
2018-11-12T23:22:45.111Z,91.30
2018-11-12T23:25:13.697Z,91.40
2018-11-12T23:27:43.129Z,91.50
2018-11-12T23:30:13.344Z,91.50
2018-11-12T23:32:41.906Z,91.50
2018-11-12T23:35:13.717Z,91.40
2018-11-12T23:37:43.007Z,91.20
2018-11-12T23:40:12.074Z,91.40
2018-11-12T23:42:40.898Z,91.20
2018-11-12T23:45:09.486Z,91.10
2018-11-12T23:47:38.470Z,91.00
2018-11-12T23:50:09.135Z,91.00
2018-11-12T23:52:37.655Z,91.00
2018-11-12T23:55:06.339Z,91.00
2018-11-12T23:57:34.842Z,91.00
